Station Historical Data
Daily Summary for April 24, 2012 Units:  English    Metric   Both
« Previous Day
Next Day »
Daily Weekly Monthly Yearly Custom
  High: Low: Average:
Temperature: 69.6 °F 37.3 °F 54.4 °F
Dew Point: 47.2 °F 34.1 °F 40.7 °F
Humidity: 92% 38% 64%
Wind Speed: 15.0mph 0.0mph 3.6mph
Wind Gust: 19.0mph - -
Wind- - WSW
Pressure: 29.98 in 29.82 in -
Precipitation: 0.00 in    
Historical Graphs
 
 
Tabular Data for April 24, 2012
Time Temperature Dew Point Pressure Wind Wind Speed Wind Gust Humidity Rainfall Rate (Hourly) Conditions
00:00 43.4 °F 37.0 °F 29.94 in Calm     78% 0.00 in
00:01 43.3 °F 36.6 °F 29.94 in Calm     77% 0.00 in
00:06 42.5 °F 36.1 °F 29.94 in Calm     78% 0.00 in
00:11 41.7 °F 35.7 °F 29.94 in Calm     79% 0.00 in
00:16 41.1 °F 35.1 °F 29.94 in Calm     79% 0.00 in
00:21 40.8 °F 34.8 °F 29.93 in Calm     79% 0.00 in
00:26 40.5 °F 34.2 °F 29.93 in Calm     78% 0.00 in
00:31 40.1 °F 34.1 °F 29.94 in Calm     79% 0.00 in
00:36 40.1 °F 35.4 °F 29.93 in Calm     83% 0.00 in
00:41 40.2 °F 35.5 °F 29.93 in Calm     83% 0.00 in
00:46 39.9 °F 35.2 °F 29.93 in Calm     83% 0.00 in
00:51 39.5 °F 35.1 °F 29.93 in Calm     84% 0.00 in
00:56 39.2 °F 35.1 °F 29.93 in Calm     85% 0.00 in
01:01 38.9 °F 34.8 °F 29.93 in Calm     85% 0.00 in
01:06 38.8 °F 35.0 °F 29.93 in Calm     86% 0.00 in
01:11 38.7 °F 34.9 °F 29.93 in Calm     86% 0.00 in
01:16 39.0 °F 35.5 °F 29.93 in Calm     87% 0.00 in
01:21 39.2 °F 35.1 °F 29.93 in Calm     85% 0.00 in
01:26 39.5 °F 35.1 °F 29.93 in Calm     84% 0.00 in
01:31 39.5 °F 34.8 °F 29.93 in Calm     83% 0.00 in
01:37 39.5 °F 35.1 °F 29.93 in Calm     84% 0.00 in
01:42 39.4 °F 35.3 °F 29.92 in Calm     85% 0.00 in
01:47 39.3 °F 35.5 °F 29.92 in Calm     86% 0.00 in
01:52 39.2 °F 36.0 °F 29.92 in Calm     88% 0.00 in
01:57 38.9 °F 35.9 °F 29.92 in Calm     89% 0.00 in
02:02 39.1 °F 36.7 °F 29.92 in Calm     91% 0.00 in
02:07 39.4 °F 37.0 °F 29.92 in Calm     91% 0.00 in
02:12 39.2 °F 36.5 °F 29.92 in Calm     90% 0.00 in
02:17 39.2 °F 36.8 °F 29.92 in Calm     91% 0.00 in
02:22 39.2 °F 36.8 °F 29.92 in Calm     91% 0.00 in
02:27 39.0 °F 36.3 °F 29.92 in Calm     90% 0.00 in
02:32 38.9 °F 36.2 °F 29.92 in Calm     90% 0.00 in
02:37 38.8 °F 36.1 °F 29.92 in Calm     90% 0.00 in
02:42 38.7 °F 36.0 °F 29.92 in Calm     90% 0.00 in
02:47 38.7 °F 36.0 °F 29.92 in Calm     90% 0.00 in
02:52 38.7 °F 36.0 °F 29.92 in Calm     90% 0.00 in
02:57 38.9 °F 36.5 °F 29.92 in Calm     91% 0.00 in
03:02 39.2 °F 36.8 °F 29.92 in Calm     91% 0.00 in
03:07 39.2 °F 36.2 °F 29.92 in Calm     89% 0.00 in
03:12 39.3 °F 36.0 °F 29.91 in Calm   1.0 mph 88% 0.00 in
03:17 39.5 °F 36.0 °F 29.91 in Calm     87% 0.00 in
03:22 39.5 °F 35.7 °F 29.91 in Calm     86% 0.00 in
03:27 39.5 °F 35.7 °F 29.91 in Calm   1.0 mph 86% 0.00 in
03:32 39.5 °F 35.7 °F 29.91 in Calm     86% 0.00 in
03:37 39.5 °F 35.4 °F 29.91 in Calm     85% 0.00 in
03:42 39.4 °F 35.3 °F 29.91 in Calm     85% 0.00 in
03:47 39.4 °F 35.6 °F 29.91 in Calm     86% 0.00 in
03:52 39.5 °F 35.7 °F 29.91 in Calm   1.0 mph 86% 0.00 in
03:57 39.5 °F 35.7 °F 29.91 in Calm     86% 0.00 in
04:02 39.4 °F 35.3 °F 29.91 in Calm     85% 0.00 in
04:07 39.3 °F 35.2 °F 29.91 in Calm     85% 0.00 in
04:12 39.2 °F 35.1 °F 29.91 in Calm     85% 0.00 in
04:17 39.1 °F 35.0 °F 29.91 in Calm     85% 0.00 in
04:22 39.1 °F 35.0 °F 29.91 in Calm     85% 0.00 in
04:27 38.9 °F 34.8 °F 29.91 in Calm     85% 0.00 in
04:32 38.8 °F 35.0 °F 29.91 in Calm     86% 0.00 in
04:37 38.5 °F 34.7 °F 29.91 in Calm     86% 0.00 in
04:42 38.2 °F 34.7 °F 29.91 in Calm     87% 0.00 in
04:48 37.9 °F 34.7 °F 29.92 in Calm     88% 0.00 in
04:53 37.6 °F 34.7 °F 29.91 in Calm     89% 0.00 in
04:58 37.3 °F 34.4 °F 29.91 in Calm     89% 0.00 in
05:03 37.3 °F 34.9 °F 29.91 in Calm     91% 0.00 in
05:08 37.6 °F 35.2 °F 29.91 in Calm     91% 0.00 in
05:13 37.8 °F 35.7 °F 29.91 in Calm     92% 0.00 in
05:18 37.7 °F 35.3 °F 29.91 in Calm     91% 0.00 in
05:23 37.5 °F 34.8 °F 29.91 in Calm     90% 0.00 in
05:28 37.7 °F 35.0 °F 29.91 in Calm     90% 0.00 in
05:33 37.9 °F 35.2 °F 29.92 in Calm     90% 0.00 in
05:38 38.3 °F 35.6 °F 29.92 in Calm     90% 0.00 in
05:43 38.3 °F 35.6 °F 29.92 in Calm     90% 0.00 in
05:48 38.3 °F 35.6 °F 29.92 in Calm     90% 0.00 in
05:54 38.5 °F 36.1 °F 29.92 in Calm     91% 0.00 in
05:59 38.4 °F 36.0 °F 29.92 in Calm     91% 0.00 in
06:04 38.2 °F 35.8 °F 29.92 in Calm     91% 0.00 in
06:09 38.3 °F 35.9 °F 29.92 in Calm     91% 0.00 in
06:14 38.3 °F 35.9 °F 29.92 in Calm     91% 0.00 in
06:19 38.5 °F 35.8 °F 29.92 in Calm     90% 0.00 in
06:24 38.8 °F 36.1 °F 29.92 in Calm   1.0 mph 90% 0.00 in
06:29 38.8 °F 36.4 °F 29.93 in Calm     91% 0.00 in
06:34 38.7 °F 36.3 °F 29.93 in Calm     91% 0.00 in
06:39 38.5 °F 35.8 °F 29.93 in Calm     90% 0.00 in
06:44 38.2 °F 35.5 °F 29.93 in Calm     90% 0.00 in
06:49 38.0 °F 35.3 °F 29.93 in Calm     90% 0.00 in
06:54 37.8 °F 35.1 °F 29.93 in Calm     90% 0.00 in
06:59 37.8 °F 35.1 °F 29.93 in Calm     90% 0.00 in
07:04 37.7 °F 35.0 °F 29.93 in Calm     90% 0.00 in
07:09 37.8 °F 35.4 °F 29.93 in Calm     91% 0.00 in
07:14 38.0 °F 35.9 °F 29.94 in Calm     92% 0.00 in
07:19 38.1 °F 36.0 °F 29.94 in Calm     92% 0.00 in
07:24 38.1 °F 36.0 °F 29.94 in Calm     92% 0.00 in
07:29 37.9 °F 35.8 °F 29.94 in Calm     92% 0.00 in
07:34 37.9 °F 35.8 °F 29.94 in Calm     92% 0.00 in
07:39 38.1 °F 36.0 °F 29.94 in Calm     92% 0.00 in
07:44 38.3 °F 36.2 °F 29.94 in Calm     92% 0.00 in
07:50 38.8 °F 36.1 °F 29.94 in Calm     90% 0.00 in
07:55 39.5 °F 36.8 °F 29.94 in Calm     90% 0.00 in
08:00 40.3 °F 37.3 °F 29.95 in Calm   1.0 mph 89% 0.00 in
08:05 40.9 °F 37.3 °F 29.95 in West 1.0 mph 1.0 mph 87% 0.00 in
08:10 41.5 °F 37.9 °F 29.95 in Calm   1.0 mph 87% 0.00 in
08:15 42.1 °F 38.2 °F 29.95 in WSW 2.0 mph 4.0 mph 86% 0.00 in
08:20 42.8 °F 38.6 °F 29.95 in West 2.0 mph 3.0 mph 85% 0.00 in
08:25 43.3 °F 39.1 °F 29.95 in Calm   2.0 mph 85% 0.00 in
08:30 44.1 °F 39.6 °F 29.96 in Calm   2.0 mph 84% 0.00 in
08:35 44.8 °F 40.0 °F 29.96 in Calm   3.0 mph 83% 0.00 in
08:40 45.6 °F 40.1 °F 29.96 in West 3.0 mph 6.0 mph 81% 0.00 in
08:45 46.3 °F 40.8 °F 29.96 in West 1.0 mph 4.0 mph 81% 0.00 in
08:50 46.9 °F 41.4 °F 29.96 in WNW 2.0 mph 3.0 mph 81% 0.00 in
08:55 47.5 °F 41.7 °F 29.97 in West 2.0 mph 4.0 mph 80% 0.00 in
09:00 48.0 °F 41.2 °F 29.97 in NW 4.0 mph 7.0 mph 77% 0.00 in
09:05 48.7 °F 41.8 °F 29.97 in WNW 5.0 mph 6.0 mph 77% 0.00 in
09:10 49.1 °F 41.5 °F 29.97 in WNW 3.0 mph 6.0 mph 75% 0.00 in
09:15 49.6 °F 41.7 °F 29.97 in WNW 7.0 mph 8.0 mph 74% 0.00 in
09:20 49.9 °F 42.3 °F 29.97 in WSW 6.0 mph 8.0 mph 75% 0.00 in
09:25 50.5 °F 42.5 °F 29.97 in West 3.0 mph 7.0 mph 74% 0.00 in
09:30 50.7 °F 42.0 °F 29.97 in West 4.0 mph 7.0 mph 72% 0.00 in
09:35 51.2 °F 42.1 °F 29.97 in West 6.0 mph 6.0 mph 71% 0.00 in
09:40 51.6 °F 41.8 °F 29.97 in WSW 3.0 mph 8.0 mph 69% 0.00 in
09:41 51.6 °F 42.2 °F 29.97 in West 5.0 mph 8.0 mph 70% 0.00 in
09:46 52.1 °F 43.4 °F 29.97 in WNW 6.0 mph 7.0 mph 72% 0.00 in
09:51 52.7 °F 43.2 °F 29.97 in WNW 5.0 mph 6.0 mph 70% 0.00 in
09:56 53.5 °F 43.2 °F 29.97 in West 6.0 mph 6.0 mph 68% 0.00 in
10:01 53.8 °F 43.1 °F 29.97 in WNW 4.0 mph 5.0 mph 67% 0.00 in
10:06 54.3 °F 44.4 °F 29.97 in West 5.0 mph 6.0 mph 69% 0.00 in
10:11 54.8 °F 43.3 °F 29.97 in WNW 5.0 mph 5.0 mph 65% 0.00 in
10:16 55.5 °F 44.3 °F 29.97 in West 3.0 mph 5.0 mph 66% 0.00 in
10:21 55.9 °F 43.1 °F 29.97 in West 7.0 mph 12.0 mph 62% 0.00 in
10:26 56.7 °F 44.7 °F 29.97 in NW 4.0 mph 6.0 mph 64% 0.00 in
10:31 57.4 °F 44.1 °F 29.97 in West 9.0 mph 9.0 mph 61% 0.00 in
10:36 57.5 °F 43.7 °F 29.97 in West 9.0 mph 10.0 mph 60% 0.00 in
10:41 57.5 °F 42.8 °F 29.97 in WNW 8.0 mph 12.0 mph 58% 0.00 in
10:47 58.1 °F 44.3 °F 29.97 in West 1.0 mph 7.0 mph 60% 0.00 in
10:52 58.6 °F 43.4 °F 29.97 in WNW 9.0 mph 12.0 mph 57% 0.00 in
10:57 58.6 °F 44.3 °F 29.98 in WNW 6.0 mph 8.0 mph 59% 0.00 in
11:02 59.0 °F 44.7 °F 29.97 in WNW 7.0 mph 9.0 mph 59% 0.00 in
11:07 59.4 °F 44.2 °F 29.97 in NW 5.0 mph 9.0 mph 57% 0.00 in
11:12 60.1 °F 44.8 °F 29.97 in WNW 7.0 mph 8.0 mph 57% 0.00 in
11:17 60.5 °F 43.3 °F 29.97 in West 11.0 mph 11.0 mph 53% 0.00 in
11:22 60.8 °F 43.1 °F 29.97 in WNW 6.0 mph 11.0 mph 52% 0.00 in
11:27 61.1 °F 42.8 °F 29.97 in WNW 6.0 mph 15.0 mph 51% 0.00 in
11:32 61.1 °F 42.3 °F 29.98 in WNW 5.0 mph 14.0 mph 50% 0.00 in
11:37 61.7 °F 42.4 °F 29.98 in WNW 13.0 mph 13.0 mph 49% 0.00 in
11:42 61.4 °F 38.7 °F 29.98 in WNW 13.0 mph 16.0 mph 43% 0.00 in
11:47 61.4 °F 40.5 °F 29.97 in WNW 6.0 mph 14.0 mph 46% 0.00 in
11:52 61.6 °F 40.6 °F 29.97 in WNW 9.0 mph 15.0 mph 46% 0.00 in
11:57 61.7 °F 40.7 °F 29.97 in WNW 9.0 mph 15.0 mph 46% 0.00 in
12:02 62.0 °F 40.4 °F 29.97 in WNW 10.0 mph 13.0 mph 45% 0.00 in
12:07 62.0 °F 36.8 °F 29.97 in West 4.0 mph 19.0 mph 39% 0.00 in
12:12 62.0 °F 39.9 °F 29.97 in WSW 9.0 mph 12.0 mph 44% 0.00 in
12:17 62.2 °F 40.0 °F 29.97 in NNW 11.0 mph 15.0 mph 44% 0.00 in
12:22 62.6 °F 40.4 °F 29.97 in NW 4.0 mph 19.0 mph 44% 0.00 in
12:28 62.6 °F 38.0 °F 29.97 in West 10.0 mph 15.0 mph 40% 0.00 in
12:33 62.9 °F 40.7 °F 29.97 in NNW 9.0 mph 13.0 mph 44% 0.00 in
12:38 63.1 °F 40.9 °F 29.96 in SW 9.0 mph 12.0 mph 44% 0.00 in
12:43 63.0 °F 39.6 °F 29.96 in WNW 2.0 mph 13.0 mph 42% 0.00 in
12:48 63.5 °F 40.6 °F 29.96 in WNW 7.0 mph 10.0 mph 43% 0.00 in
12:53 63.3 °F 39.8 °F 29.95 in West 11.0 mph 15.0 mph 42% 0.00 in
12:58 63.1 °F 40.3 °F 29.95 in WNW 6.0 mph 12.0 mph 43% 0.00 in
13:03 63.3 °F 39.8 °F 29.95 in WSW 12.0 mph 14.0 mph 42% 0.00 in
13:08 63.7 °F 39.6 °F 29.95 in WNW 8.0 mph 12.0 mph 41% 0.00 in
13:13 64.1 °F 40.6 °F 29.95 in West 7.0 mph 8.0 mph 42% 0.00 in
13:18 64.2 °F 41.8 °F 29.95 in SW 5.0 mph 16.0 mph 44% 0.00 in
13:23 64.3 °F 41.3 °F 29.94 in West 3.0 mph 8.0 mph 43% 0.00 in
13:28 64.5 °F 40.9 °F 29.95 in WSW 9.0 mph 12.0 mph 42% 0.00 in
13:33 64.7 °F 41.1 °F 29.94 in WNW 10.0 mph 12.0 mph 42% 0.00 in
13:38 64.6 °F 39.8 °F 29.94 in WNW 5.0 mph 14.0 mph 40% 0.00 in
13:43 64.9 °F 40.7 °F 29.94 in SW 4.0 mph 13.0 mph 41% 0.00 in
13:48 64.6 °F 39.8 °F 29.94 in WSW 5.0 mph 13.0 mph 40% 0.00 in
13:54 64.8 °F 41.2 °F 29.93 in WNW 6.0 mph 10.0 mph 42% 0.00 in
13:59 65.7 °F 42.6 °F 29.93 in WNW 15.0 mph 15.0 mph 43% 0.00 in
14:04 65.4 °F 40.5 °F 29.93 in NW 5.0 mph 12.0 mph 40% 0.00 in
14:07 65.6 °F 41.3 °F 29.93 in West 5.0 mph 10.0 mph 41% 0.00 in
14:12 65.6 °F 43.7 °F 29.92 in NW 9.0 mph 14.0 mph 45% 0.00 in
14:17 66.3 °F 44.9 °F 29.93 in WSW 5.0 mph 10.0 mph 46% 0.00 in
14:22 66.5 °F 42.7 °F 29.93 in NW 3.0 mph 9.0 mph 42% 0.00 in
14:27 66.8 °F 42.4 °F 29.92 in NW 5.0 mph 7.0 mph 41% 0.00 in
14:32 66.6 °F 43.4 °F 29.92 in West 12.0 mph 13.0 mph 43% 0.00 in
14:37 66.6 °F 42.8 °F 29.92 in SW 6.0 mph 7.0 mph 42% 0.00 in
14:42 66.5 °F 42.1 °F 29.92 in West 9.0 mph 14.0 mph 41% 0.00 in
14:47 66.4 °F 43.2 °F 29.92 in WSW 6.0 mph 13.0 mph 43% 0.00 in
14:52 66.8 °F 41.7 °F 29.92 in West 11.0 mph 13.0 mph 40% 0.00 in
14:57 66.8 °F 43.6 °F 29.92 in WNW 3.0 mph 9.0 mph 43% 0.00 in
15:02 67.2 °F 44.0 °F 29.92 in SSW 5.0 mph 13.0 mph 43% 0.00 in
15:07 67.1 °F 43.3 °F 29.91 in WSW 8.0 mph 14.0 mph 42% 0.00 in
15:12 67.5 °F 44.8 °F 29.91 in WSW 10.0 mph 10.0 mph 44% 0.00 in
15:17 67.7 °F 45.0 °F 29.91 in WSW 12.0 mph 12.0 mph 44% 0.00 in
15:22 67.6 °F 43.1 °F 29.91 in SSW 13.0 mph 13.0 mph 41% 0.00 in
15:27 67.7 °F 43.2 °F 29.91 in SW 6.0 mph 11.0 mph 41% 0.00 in
15:33 67.8 °F 43.9 °F 29.90 in WSW 5.0 mph 11.0 mph 42% 0.00 in
15:38 68.5 °F 43.9 °F 29.90 in WSW 8.0 mph 11.0 mph 41% 0.00 in
15:43 68.6 °F 42.0 °F 29.90 in WSW 10.0 mph 14.0 mph 38% 0.00 in
15:48 68.4 °F 43.2 °F 29.90 in WNW 12.0 mph 13.0 mph 40% 0.00 in
15:53 67.5 °F 43.0 °F 29.90 in WNW 6.0 mph 12.0 mph 41% 0.00 in
15:58 66.7 °F 43.5 °F 29.89 in West 4.0 mph 9.0 mph 43% 0.00 in
16:03 66.5 °F 43.9 °F 29.90 in WSW 8.0 mph 10.0 mph 44% 0.00 in
16:08 66.7 °F 43.5 °F 29.89 in SW 8.0 mph 13.0 mph 43% 0.00 in
16:13 67.3 °F 43.5 °F 29.89 in SW 3.0 mph 8.0 mph 42% 0.00 in
16:18 67.3 °F 42.8 °F 29.89 in WSW 8.0 mph 11.0 mph 41% 0.00 in
16:23 67.1 °F 42.6 °F 29.89 in SW 4.0 mph 9.0 mph 41% 0.00 in
16:28 67.7 °F 43.8 °F 29.88 in WNW 8.0 mph 12.0 mph 42% 0.00 in
16:29 67.6 °F 43.1 °F 29.88 in WNW 3.0 mph 12.0 mph 41% 0.00 in
16:34 67.3 °F 43.5 °F 29.88 in WNW 6.0 mph 8.0 mph 42% 0.00 in
16:39 67.2 °F 42.7 °F 29.88 in WSW 7.0 mph 9.0 mph 41% 0.00 in
16:44 67.1 °F 42.6 °F 29.88 in WSW 3.0 mph 7.0 mph 41% 0.00 in
16:49 67.5 °F 44.2 °F 29.88 in WSW 6.0 mph 8.0 mph 43% 0.00 in
16:54 67.3 °F 43.5 °F 29.88 in WSW 6.0 mph 7.0 mph 42% 0.00 in
16:59 67.5 °F 43.6 °F 29.88 in South 5.0 mph 7.0 mph 42% 0.00 in
17:04 67.5 °F 43.6 °F 29.87 in WNW 12.0 mph 12.0 mph 42% 0.00 in
17:09 68.2 °F 43.6 °F 29.87 in WSW 8.0 mph 12.0 mph 41% 0.00 in
17:14 68.6 °F 43.3 °F 29.87 in WSW 9.0 mph 9.0 mph 40% 0.00 in
17:19 69.2 °F 43.2 °F 29.87 in West 7.0 mph 8.0 mph 39% 0.00 in
17:24 69.0 °F 43.7 °F 29.86 in WSW 2.0 mph 7.0 mph 40% 0.00 in
17:29 69.3 °F 44.0 °F 29.87 in WSW 6.0 mph 10.0 mph 40% 0.00 in
17:34 69.2 °F 43.2 °F 29.87 in WSW 11.0 mph 13.0 mph 39% 0.00 in
17:39 68.7 °F 43.4 °F 29.87 in WSW 9.0 mph 12.0 mph 40% 0.00 in
17:44 69.0 °F 44.3 °F 29.86 in SSW 4.0 mph 9.0 mph 41% 0.00 in
17:49 68.8 °F 42.9 °F 29.86 in SW 6.0 mph 12.0 mph 39% 0.00 in
17:54 68.6 °F 44.0 °F 29.86 in West 2.0 mph 8.0 mph 41% 0.00 in
17:59 69.0 °F 44.3 °F 29.87 in SW 12.0 mph 13.0 mph 41% 0.00 in
18:04 69.0 °F 43.0 °F 29.86 in SW 8.0 mph 12.0 mph 39% 0.00 in
18:09 69.2 °F 43.9 °F 29.85 in SW 5.0 mph 9.0 mph 40% 0.00 in
18:14 69.6 °F 43.6 °F 29.86 in WSW 8.0 mph 11.0 mph 39% 0.00 in
18:19 69.6 °F 44.2 °F 29.85 in WSW 7.0 mph 9.0 mph 40% 0.00 in
18:24 69.4 °F 44.1 °F 29.85 in WSW 5.0 mph 9.0 mph 40% 0.00 in
18:29 69.2 °F 43.9 °F 29.85 in West 3.0 mph 9.0 mph 40% 0.00 in
18:34 69.5 °F 44.8 °F 29.85 in SSW 2.0 mph 8.0 mph 41% 0.00 in
18:39 69.5 °F 44.8 °F 29.85 in SW 6.0 mph 9.0 mph 41% 0.00 in
18:44 69.1 °F 43.8 °F 29.86 in SW 7.0 mph 10.0 mph 40% 0.00 in
18:50 68.9 °F 43.0 °F 29.86 in SW 4.0 mph 9.0 mph 39% 0.00 in
18:55 68.9 °F 43.0 °F 29.86 in SW 11.0 mph 11.0 mph 39% 0.00 in
19:00 68.6 °F 43.3 °F 29.86 in West 3.0 mph 10.0 mph 40% 0.00 in
19:05 68.8 °F 43.5 °F 29.86 in WSW 4.0 mph 8.0 mph 40% 0.00 in
19:10 68.5 °F 43.2 °F 29.86 in SW 8.0 mph 11.0 mph 40% 0.00 in
19:15 68.2 °F 43.0 °F 29.85 in SW 5.0 mph 12.0 mph 40% 0.00 in
19:20 67.7 °F 43.8 °F 29.85 in WSW 6.0 mph 11.0 mph 42% 0.00 in
19:25 67.7 °F 44.4 °F 29.85 in SSW 6.0 mph 9.0 mph 43% 0.00 in
19:30 67.7 °F 44.4 °F 29.85 in SW 4.0 mph 8.0 mph 43% 0.00 in
19:35 67.6 °F 44.3 °F 29.85 in SW 4.0 mph 9.0 mph 43% 0.00 in
19:40 67.5 °F 44.8 °F 29.84 in SSW 4.0 mph 10.0 mph 44% 0.00 in
19:45 67.3 °F 44.7 °F 29.84 in SSW 2.0 mph 7.0 mph 44% 0.00 in
19:50 67.2 °F 44.0 °F 29.83 in South 5.0 mph 9.0 mph 43% 0.00 in
19:53 67.1 °F 44.5 °F 29.83 in SW 7.0 mph 8.0 mph 44% 0.00 in
19:58 66.8 °F 44.8 °F 29.83 in South 2.0 mph 5.0 mph 45% 0.00 in
20:03 66.2 °F 44.2 °F 29.84 in SW 3.0 mph 7.0 mph 45% 0.00 in
20:08 65.2 °F 44.5 °F 29.84 in SSW 2.0 mph 4.0 mph 47% 0.00 in
20:13 64.5 °F 44.4 °F 29.83 in South 4.0 mph 4.0 mph 48% 0.00 in
20:18 64.4 °F 44.3 °F 29.83 in SSW 2.0 mph 8.0 mph 48% 0.00 in
20:23 64.1 °F 44.6 °F 29.84 in SSW 1.0 mph 3.0 mph 49% 0.00 in
20:28 63.6 °F 44.6 °F 29.84 in South 3.0 mph 3.0 mph 50% 0.00 in
20:33 63.1 °F 44.7 °F 29.84 in South 2.0 mph 3.0 mph 51% 0.00 in
20:38 62.7 °F 44.3 °F 29.84 in SSW 1.0 mph 2.0 mph 51% 0.00 in
20:43 62.4 °F 44.6 °F 29.84 in South 2.0 mph 3.0 mph 52% 0.00 in
20:48 62.1 °F 44.3 °F 29.83 in SSE 2.0 mph 2.0 mph 52% 0.00 in
20:53 61.6 °F 44.8 °F 29.83 in SSE 1.0 mph 2.0 mph 54% 0.00 in
20:58 61.4 °F 44.6 °F 29.83 in SSE 3.0 mph 3.0 mph 54% 0.00 in
21:03 61.2 °F 44.9 °F 29.83 in SE 2.0 mph 5.0 mph 55% 0.00 in
21:08 60.9 °F 45.1 °F 29.83 in SSE 3.0 mph 3.0 mph 56% 0.00 in
21:13 61.0 °F 45.2 °F 29.84 in SSE 1.0 mph 2.0 mph 56% 0.00 in
21:18 61.1 °F 45.3 °F 29.84 in SSE 1.0 mph 3.0 mph 56% 0.00 in
21:23 61.0 °F 45.2 °F 29.84 in South 2.0 mph 4.0 mph 56% 0.00 in
21:28 61.1 °F 45.8 °F 29.84 in SSE 2.0 mph 3.0 mph 57% 0.00 in
21:33 61.1 °F 45.8 °F 29.84 in SSW 4.0 mph 4.0 mph 57% 0.00 in
21:38 61.2 °F 45.9 °F 29.84 in Calm   3.0 mph 57% 0.00 in
21:43 61.2 °F 45.9 °F 29.84 in SSE 2.0 mph 3.0 mph 57% 0.00 in
21:48 61.3 °F 46.0 °F 29.83 in SW 4.0 mph 6.0 mph 57% 0.00 in
21:53 61.4 °F 45.6 °F 29.83 in SSE 5.0 mph 5.0 mph 56% 0.00 in
21:59 61.7 °F 45.9 °F 29.83 in South 5.0 mph 7.0 mph 56% 0.00 in
22:04 61.9 °F 45.6 °F 29.83 in South 6.0 mph 10.0 mph 55% 0.00 in
22:09 62.0 °F 45.7 °F 29.83 in SSE 5.0 mph 8.0 mph 55% 0.00 in
22:14 62.0 °F 46.1 °F 29.83 in South 4.0 mph 8.0 mph 56% 0.00 in
22:19 62.1 °F 46.2 °F 29.83 in South 4.0 mph 9.0 mph 56% 0.00 in
22:24 62.0 °F 46.1 °F 29.83 in South 3.0 mph 7.0 mph 56% 0.00 in
22:29 61.8 °F 46.4 °F 29.83 in SW 7.0 mph 8.0 mph 57% 0.00 in
22:34 61.6 °F 46.2 °F 29.83 in WSW 3.0 mph 6.0 mph 57% 0.00 in
22:39 61.5 °F 46.1 °F 29.83 in SSW 7.0 mph 9.0 mph 57% 0.00 in
22:44 61.6 °F 46.7 °F 29.83 in South 7.0 mph 7.0 mph 58% 0.00 in
22:49 61.6 °F 46.2 °F 29.83 in South 3.0 mph 10.0 mph 57% 0.00 in
22:54 61.6 °F 46.7 °F 29.83 in South 5.0 mph 7.0 mph 58% 0.00 in
22:59 61.5 °F 46.6 °F 29.83 in SSW 5.0 mph 8.0 mph 58% 0.00 in
23:04 61.4 °F 47.0 °F 29.83 in SSW 4.0 mph 6.0 mph 59% 0.00 in
23:09 61.4 °F 47.0 °F 29.82 in SSW 6.0 mph 9.0 mph 59% 0.00 in
23:14 61.3 °F 46.9 °F 29.82 in WSW 5.0 mph 9.0 mph 59% 0.00 in
23:19 61.1 °F 46.7 °F 29.82 in SW 3.0 mph 8.0 mph 59% 0.00 in
23:24 60.8 °F 46.8 °F 29.82 in South 4.0 mph 6.0 mph 60% 0.00 in
23:29 60.4 °F 46.9 °F 29.83 in SSW 5.0 mph 7.0 mph 61% 0.00 in
23:34 60.4 °F 46.9 °F 29.82 in SSW 5.0 mph 8.0 mph 61% 0.00 in
23:39 60.4 °F 46.9 °F 29.82 in SSW 6.0 mph 9.0 mph 61% 0.00 in
23:44 60.3 °F 46.8 °F 29.82 in SSE 3.0 mph 4.0 mph 61% 0.00 in
23:49 60.2 °F 47.2 °F 29.82 in SSW 3.0 mph 5.0 mph 62% 0.00 in
23:54 60.0 °F 47.0 °F 29.82 in SSW 3.0 mph 4.0 mph 62% 0.00 in
23:59 59.8 °F 46.8 °F 29.82 in South 2.0 mph 5.0 mph 62% 0.00 in
Compliments of Weather Underground